Terminal Aerodrome Forecast
Issued by NWS

Home | Current Version | Previous Version | Graphics & Text | Print | Product List | Glossary On
Versions: 1 2 3 4 5 6 7 8 9 10 11 12 13 14 15 16 17 18 19 20 21 22 23 24 25 26 27 28
000
FTUS43 KABR 222321
TAFMBG
TAF
KMBG 222321Z 2300/2324 33015G21KT P6SM OVC015
     FM230300 34013G21KT P6SM BKN020
     FM230400 34012G19KT P6SM BKN015
     FM230500 35012G19KT P6SM VCSH BKN010
     FM230900 36008KT P6SM BKN025
     FM231400 36010KT P6SM OVC008
     FM231700 01010G17KT P6SM OVC020=

USA.gov is the U.S. government's official web portal to all federal, state and local government web resources and services.